»·PEaware :: N39921 L70-KSBP

N39921 :: L70-KSBP

FLIGHT INFORMATION

Flight Status: Arrived
Operator: Privately registered:
United States
More flights under this callsign
Pilot: Nickolaus B. (17683)
Aircraft: PIPER PA-32 SARATOGA
(PA32)
More flights by this aircraft type
Origin: L70 Agua Dulce
United States
Destination: KSBP San Luis Co Regl
United States
More flights between these airports :: More routes between these airports
Route:
File this flight plan on PilotEdge
Remarks:
Altitude:
(Current/Filed)
8,500ft
Speed:
(Current/Filed)
160kts
Departed: 25-Jul-18 05:49 PM
Arrived: 25-Jul-18 06:36 PM
Distance/Time
Traveled:
123nm/0:47
Distance/Time
To Go:
Arrived

Flight Plot

Page will automatically refresh every two minutes.


Map Options




Map Legend


Flown Route
Filed Route
Departure Airport
Arrival Airport
Navaid (VOR, NDB)
Fix

Horizontal Profiles

Position Reports

Time Latitude Longitude Heading Altitude Ground
Speed
25-Jul-18 17:42 34.503290 -118.314722 229 2614ft 0kts
25-Jul-18 17:43 34.503290 -118.314722 229 2614ft 0kts
25-Jul-18 17:44 34.503303 -118.314450 57 2616ft 1kts
25-Jul-18 17:45 34.504096 -118.313064 52 2626ft 3kts
25-Jul-18 17:46 34.505405 -118.310971 53 2641ft 11kts
25-Jul-18 17:47 34.506993 -118.308424 51 2663ft 8kts
25-Jul-18 17:48 34.507712 -118.307278 57 2670ft 0kts
25-Jul-18 17:49 34.507643 -118.306976 145 2665ft 1kts
25-Jul-18 17:50 34.502868 -118.314247 235 2675ft 98kts
25-Jul-18 17:51 34.483118 -118.344477 240 3570ft 134kts
25-Jul-18 17:52 34.502620 -118.384731 321 3975ft 156kts
25-Jul-18 17:53 34.531161 -118.412998 303 5395ft 121kts
25-Jul-18 17:54 34.544209 -118.442433 289 6752ft 94kts
25-Jul-18 17:55 34.553899 -118.469111 288 7553ft 112kts
25-Jul-18 17:56 34.565303 -118.505516 288 8463ft 126kts
25-Jul-18 17:57 34.580669 -118.552487 290 8487ft 164kts
25-Jul-18 17:58 34.598058 -118.605808 289 8489ft 178kts
25-Jul-18 17:59 34.616028 -118.661090 288 8503ft 184kts
25-Jul-18 18:00 34.631754 -118.709569 288 8525ft 187kts
25-Jul-18 18:01 34.650662 -118.767931 288 8563ft 184kts
25-Jul-18 18:02 34.672234 -118.834716 288 8592ft 184kts
25-Jul-18 18:03 34.691102 -118.892236 289 8569ft 189kts
25-Jul-18 18:04 34.709459 -118.949069 293 8532ft 189kts
25-Jul-18 18:05 34.727836 -119.005592 292 8481ft 184kts
25-Jul-18 18:06 34.742973 -119.052671 291 8441ft 182kts
25-Jul-18 18:07 34.760739 -119.108139 291 8447ft 180kts
25-Jul-18 18:08 34.778679 -119.164199 291 8453ft 180kts
25-Jul-18 18:09 34.796113 -119.218761 291 8446ft 180kts
25-Jul-18 18:10 34.813858 -119.274408 291 8450ft 180kts
25-Jul-18 18:11 34.834027 -119.337770 291 8448ft 181kts
25-Jul-18 18:12 34.848988 -119.384845 291 8478ft 179kts
25-Jul-18 18:13 34.866027 -119.438599 291 8484ft 180kts
25-Jul-18 18:14 34.883450 -119.493655 291 8477ft 180kts
25-Jul-18 18:15 34.900724 -119.548354 291 8477ft 180kts
25-Jul-18 18:16 34.918377 -119.604333 291 8485ft 180kts
25-Jul-18 18:17 34.935528 -119.658810 291 8492ft 180kts
25-Jul-18 18:18 34.952667 -119.713340 291 8496ft 181kts
25-Jul-18 18:19 34.970508 -119.770224 291 8499ft 181kts
25-Jul-18 18:20 34.988072 -119.826336 291 8436ft 185kts
25-Jul-18 18:21 35.006321 -119.884695 291 7805ft 196kts
25-Jul-18 18:22 35.025632 -119.946633 291 7146ft 197kts
25-Jul-18 18:23 35.044797 -120.008231 291 6518ft 196kts
25-Jul-18 18:24 35.062686 -120.065948 291 6498ft 180kts
25-Jul-18 18:25 35.079236 -120.122346 291 6505ft 177kts
25-Jul-18 18:26 35.096864 -120.179774 292 6104ft 188kts
25-Jul-18 18:27 35.114610 -120.237342 292 5474ft 188kts
25-Jul-18 18:28 35.132675 -120.296069 292 4821ft 184kts
25-Jul-18 18:29 35.149704 -120.351541 292 4511ft 164kts
25-Jul-18 18:30 35.165794 -120.404001 292 3760ft 176kts
25-Jul-18 18:31 35.178164 -120.458052 283 2879ft 164kts
25-Jul-18 18:32 35.186107 -120.507297 283 2496ft 122kts
25-Jul-18 18:33 35.190726 -120.545521 285 1826ft 116kts
25-Jul-18 18:34 35.202770 -120.575320 295 1224ft 101kts
25-Jul-18 18:35 35.214159 -120.600926 302 983ft 78kts
25-Jul-18 18:36 35.226733 -120.622736 306 483ft 80kts
25-Jul-18 18:37 35.236809 -120.639970 348 191ft 23kts
25-Jul-18 18:38 35.237794 -120.639960 348 191ft 5kts

Navigation Log

Ident Type
Flight plan parsing failed, navigation log unavailable